Time;durP1;ratioP1;P1;durP2;ratioP2;P2;SDS_P1;SDS_P2;PMS_P1;PMS_P2;Temp;Humidity;BMP_temperature;BMP_pressure;BME280_temperature;BME280_humidity;BME280_pressure;Samples;Min_cycle;Max_cycle;Signal;HPM_P1;HPM_P2
2023/06/01 00:01:37;;;;;;;;;14.00;10.00;;;;;21.77;44.24;101599.25;6187982;22;45296;-62
2023/06/01 00:04:03;;;;;;;;;10.67;9.67;;;;;21.75;43.94;101595.81;6186982;22;45384;-62
2023/06/01 00:06:37;;;;;;;;;13.67;12.33;;;;;21.75;44.01;101593.09;5104562;27;45555;-62
2023/06/01 00:09:03;;;;;;;;;9.67;8.00;;;;;21.75;44.62;101597.69;5091484;27;45524;-63
2023/06/01 00:11:28;;;;;;;;;8.67;8.67;;;;;21.72;44.31;101595.22;5103576;27;45420;-62
2023/06/01 00:13:53;;;;;;;;;11.33;9.00;;;;;21.71;44.71;101599.78;5078707;27;45500;-62
2023/06/01 00:16:19;;;;;;;;;14.00;11.00;;;;;21.71;45.06;101598.94;5095651;27;48105;-62
2023/06/01 00:18:44;;;;;;;;;14.00;11.33;;;;;21.69;44.64;101590.06;5095437;27;45426;-62
2023/06/01 00:21:10;;;;;;;;;8.67;8.33;;;;;21.65;44.83;101597.59;5093616;27;45496;-62
2023/06/01 00:23:36;;;;;;;;;11.00;10.33;;;;;21.63;44.98;101597.72;5084735;27;45690;-62
2023/06/01 00:26:02;;;;;;;;;10.67;8.67;;;;;21.62;45.40;101592.44;5093514;27;46230;-62
2023/06/01 00:28:28;;;;;;;;;12.67;10.00;;;;;21.58;45.30;101594.53;5115102;27;45549;-62
2023/06/01 00:30:53;;;;;;;;;12.33;10.00;;;;;21.55;45.28;101584.00;5100496;27;45378;-62
2023/06/01 00:33:22;;;;;;;;;12.67;12.67;;;;;21.53;45.55;101585.06;5102061;27;45573;-62
2023/06/01 00:35:47;;;;;;;;;12.67;9.00;;;;;21.50;45.61;101588.91;5084224;27;46425;-62
2023/06/01 00:38:13;;;;;;;;;13.00;10.33;;;;;21.48;45.99;101590.84;5091266;27;45454;-62
2023/06/01 00:40:38;;;;;;;;;15.00;12.33;;;;;21.42;45.81;101585.94;5094462;27;45454;-62
2023/06/01 00:43:04;;;;;;;;;12.33;12.33;;;;;21.37;46.16;101590.88;5093340;27;45638;-62
2023/06/01 00:45:30;;;;;;;;;11.67;11.67;;;;;21.31;46.71;101594.97;5084542;27;46161;-62
2023/06/01 00:47:55;;;;;;;;;9.00;9.00;;;;;21.28;47.27;101596.09;5078409;27;45963;-62
2023/06/01 00:50:21;;;;;;;;;15.67;12.33;;;;;21.23;47.12;101595.63;5098695;27;45694;-62
2023/06/01 00:52:49;;;;;;;;;14.00;12.00;;;;;21.18;47.18;101591.59;5098576;27;45339;-61
2023/06/01 00:55:14;;;;;;;;;17.00;14.00;;;;;21.14;47.35;101588.25;5100178;27;45617;-61
2023/06/01 00:57:42;;;;;;;;;14.67;12.33;;;;;21.11;46.77;101588.53;5089902;27;45314;-62
2023/06/01 01:00:11;;;;;;;;;16.00;13.00;;;;;21.07;47.04;101597.88;5101820;27;45532;-62
2023/06/01 01:02:38;;;;;;;;;13.00;12.00;;;;;21.04;48.25;101595.41;5099905;27;45402;-61
2023/06/01 01:05:12;;;;;;;;;12.67;11.00;;;;;21.00;47.12;101592.09;5107129;27;45468;-61
2023/06/01 01:07:58;;;;;;;;;11.67;10.00;;;;;20.96;47.78;101599.63;5115040;27;45717;-62
2023/06/01 01:10:33;;;;;;;;;13.33;12.33;;;;;20.92;47.62;101595.44;5078797;27;45411;-62
2023/06/01 01:13:06;;;;;;;;;10.33;8.67;;;;;20.91;48.74;101596.44;5096865;27;45364;-61
2023/06/01 01:15:56;;;;;;;;;18.00;12.67;;;;;20.85;48.64;101590.66;5090624;27;47297;-62
2023/06/01 01:18:33;;;;;;;;;16.00;15.33;;;;;20.78;49.31;101598.38;5063003;28;45436;-62
2023/06/01 01:21:01;;;;;;;;;15.33;13.33;;;;;20.75;48.66;101602.19;5068975;27;45443;-62
2023/06/01 01:23:58;;;;;;;;;15.00;13.00;;;;;20.73;48.64;101598.78;5079116;27;45575;-62
2023/06/01 01:26:43;;;;;;;;;12.33;11.67;;;;;20.66;49.71;101602.91;5075890;27;47351;-62
2023/06/01 01:29:09;;;;;;;;;19.67;16.33;;;;;20.66;49.25;101605.63;5066161;28;45365;-61
2023/06/01 01:31:35;;;;;;;;;19.00;14.00;;;;;20.62;48.97;101609.56;5111087;27;45683;-62
2023/06/01 01:34:02;;;;;;;;;14.33;13.67;;;;;20.60;50.01;101606.13;5087377;27;45367;-61
2023/06/01 01:36:27;;;;;;;;;12.00;12.00;;;;;20.56;49.10;101605.50;5082600;27;46954;-61
2023/06/01 01:38:53;;;;;;;;;14.67;14.00;;;;;20.53;50.10;101602.19;5094286;27;45567;-61
2023/06/01 01:41:19;;;;;;;;;16.33;15.00;;;;;20.50;49.45;101606.00;5080544;27;45749;-61
2023/06/01 01:43:45;;;;;;;;;17.67;14.00;;;;;20.47;49.32;101603.53;5070366;27;45288;-61
2023/06/01 01:46:22;;;;;;;;;19.67;17.33;;;;;20.43;49.82;101612.88;5078713;27;45460;-61
2023/06/01 01:49:17;;;;;;;;;18.00;16.33;;;;;20.41;51.33;101614.84;5081598;27;45487;-61
2023/06/01 01:51:58;;;;;;;;;20.00;18.00;;;;;20.33;51.06;101610.03;5097572;27;45413;-62
2023/06/01 01:54:24;;;;;;;;;23.00;20.00;;;;;20.27;50.56;101607.81;5078480;27;45682;-63
2023/06/01 01:56:50;;;;;;;;;21.00;18.33;;;;;20.19;51.50;101600.31;5080210;27;46298;-62
2023/06/01 01:59:17;;;;;;;;;21.67;17.33;;;;;20.13;52.54;101598.94;5080275;27;45866;-61
2023/06/01 02:01:44;;;;;;;;;18.33;16.67;;;;;20.09;52.13;101608.28;5080351;27;45307;-61
2023/06/01 02:04:10;;;;;;;;;18.00;17.33;;;;;20.06;51.82;101605.78;5077761;27;45586;-61
2023/06/01 02:06:36;;;;;;;;;24.00;18.33;;;;;20.02;51.38;101598.06;5074292;27;46094;-62
2023/06/01 02:09:06;;;;;;;;;25.00;22.00;;;;;20.00;52.89;101606.28;5073347;28;45398;-61
2023/06/01 02:11:31;;;;;;;;;19.67;18.33;;;;;19.95;52.49;101598.53;5075205;27;46182;-61
2023/06/01 02:13:56;;;;;;;;;23.67;19.67;;;;;19.92;52.14;101597.91;5067248;27;50112;-61
2023/06/01 02:16:22;;;;;;;;;21.67;18.00;;;;;19.89;52.66;101593.59;5075209;28;46578;-63
2023/06/01 02:18:47;;;;;;;;;17.00;17.00;;;;;19.86;52.89;101593.84;5079071;27;67991;-61
2023/06/01 02:21:13;;;;;;;;;24.00;20.00;;;;;19.83;52.80;101596.81;5079427;27;45392;-61
2023/06/01 02:23:39;;;;;;;;;20.33;19.00;;;;;19.78;53.92;101580.06;5065699;27;45506;-61
2023/06/01 02:26:08;;;;;;;;;25.33;22.00;;;;;19.74;53.63;101583.97;5092348;27;46219;-61
2023/06/01 02:28:33;;;;;;;;;20.67;17.67;;;;;19.70;54.32;101582.47;5084776;27;45283;-62
2023/06/01 02:30:59;;;;;;;;;21.00;17.67;;;;;19.63;54.19;101587.47;5072109;27;45411;-61
2023/06/01 02:33:26;;;;;;;;;26.00;20.00;;;;;19.59;54.27;101588.69;5079803;27;68628;-62
2023/06/01 02:35:51;;;;;;;;;22.00;18.67;;;;;19.54;55.05;101594.44;5098771;27;47497;-61
2023/06/01 02:38:17;;;;;;;;;24.00;21.67;;;;;19.52;54.83;101596.41;5076731;28;64910;-62
2023/06/01 02:40:42;;;;;;;;;24.33;23.00;;;;;19.48;54.00;101593.06;5098493;27;62182;-62
2023/06/01 02:43:08;;;;;;;;;23.67;21.00;;;;;19.47;53.93;101595.88;5060494;27;45527;-61
2023/06/01 02:45:33;;;;;;;;;23.00;21.67;;;;;19.45;55.54;101593.31;5082333;27;46375;-61
2023/06/01 02:47:59;;;;;;;;;25.67;22.67;;;;;19.42;55.13;101589.97;5071635;27;45421;-61
2023/06/01 02:50:24;;;;;;;;;27.33;21.33;;;;;19.41;55.90;101588.25;5072570;27;45730;-62
2023/06/01 02:52:50;;;;;;;;;22.00;18.67;;;;;19.35;56.84;101584.19;5073427;27;45467;-62
2023/06/01 02:55:16;;;;;;;;;24.00;22.33;;;;;19.30;55.91;101591.75;5079447;27;45502;-62
2023/06/01 02:57:41;;;;;;;;;23.67;21.33;;;;;19.25;57.47;101588.53;5077653;28;45416;-62
2023/06/01 03:00:15;;;;;;;;;25.67;22.00;;;;;19.21;55.94;101596.00;5082428;27;45417;-62
2023/06/01 03:02:47;;;;;;;;;23.33;21.67;;;;;19.19;56.09;101597.97;5076573;27;45566;-62
2023/06/01 03:05:14;;;;;;;;;20.33;18.00;;;;;19.16;55.64;101600.84;5076310;27;45466;-62
2023/06/01 03:07:40;;;;;;;;;25.33;22.00;;;;;19.15;55.69;101589.22;5077777;28;45420;-62
2023/06/01 03:10:06;;;;;;;;;25.33;22.33;;;;;19.15;56.54;101596.44;5094857;27;45735;-62
2023/06/01 03:12:32;;;;;;;;;23.00;20.67;;;;;19.14;55.79;101597.44;5070236;27;45647;-62
2023/06/01 03:14:57;;;;;;;;;23.67;23.33;;;;;19.13;57.50;101604.66;5079236;27;45742;-62
2023/06/01 03:17:23;;;;;;;;;26.00;25.67;;;;;19.11;56.46;101595.81;5081105;27;45426;-62
2023/06/01 03:19:48;;;;;;;;;29.00;28.67;;;;;19.09;56.69;101600.47;5079825;27;45848;-62
2023/06/01 03:22:13;;;;;;;;;26.00;23.33;;;;;19.07;57.46;101604.25;5077621;27;55253;-62
2023/06/01 03:24:41;;;;;;;;;23.33;22.00;;;;;19.05;56.27;101596.28;5080205;27;54575;-63
2023/06/01 03:27:06;;;;;;;;;24.67;20.67;;;;;19.06;56.56;101592.59;5073671;27;45353;-62
2023/06/01 03:29:32;;;;;;;;;23.67;22.67;;;;;19.01;57.29;101592.94;5072015;28;45303;-62
2023/06/01 03:31:57;;;;;;;;;23.67;23.67;;;;;18.97;57.66;101586.03;5078619;27;45248;-62
2023/06/01 03:34:23;;;;;;;;;27.33;22.67;;;;;18.94;56.87;101594.38;5082265;27;45393;-62
2023/06/01 03:36:48;;;;;;;;;33.67;22.67;;;;;18.92;56.44;101585.53;5076338;27;45331;-63
2023/06/01 03:39:16;;;;;;;;;33.00;24.67;;;;;18.91;57.53;101591.88;5077328;28;45303;-61
2023/06/01 03:41:43;;;;;;;;;30.00;23.67;;;;;18.88;57.11;101592.09;5080060;27;45462;-62
2023/06/01 03:44:10;;;;;;;;;31.33;27.33;;;;;18.87;57.19;101594.91;5076973;28;45509;-61
2023/06/01 03:46:35;;;;;;;;;28.67;27.33;;;;;18.86;57.98;101594.00;5076713;27;45346;-61
2023/06/01 03:49:00;;;;;;;;;33.33;27.00;;;;;18.85;57.86;101594.97;5074817;27;45570;-61
2023/06/01 03:51:26;;;;;;;;;25.33;20.33;;;;;18.84;57.28;101593.28;5074572;27;61071;-61
2023/06/01 03:53:51;;;;;;;;;27.33;25.00;;;;;18.88;57.92;101594.78;5076479;27;71417;-61
2023/06/01 03:56:17;;;;;;;;;26.00;25.33;;;;;18.89;57.19;101598.31;5076297;27;66175;-62
2023/06/01 03:58:42;;;;;;;;;31.33;27.67;;;;;18.88;58.06;101596.59;5077958;27;45361;-61
2023/06/01 04:01:07;;;;;;;;;31.00;26.67;;;;;18.85;58.07;101597.66;5076962;27;45619;-61
2023/06/01 04:03:33;;;;;;;;;33.00;29.00;;;;;18.83;58.05;101600.50;5072750;27;47239;-61
2023/06/01 04:05:59;;;;;;;;;26.00;20.33;;;;;18.81;57.79;101599.75;5073835;27;45577;-62
2023/06/01 04:08:27;;;;;;;;;30.00;25.33;;;;;18.81;58.19;101599.75;5075244;27;45414;-61
2023/06/01 04:10:53;;;;;;;;;33.33;28.00;;;;;18.82;58.18;101600.59;5074959;27;45457;-62
2023/06/01 04:13:18;;;;;;;;;26.67;24.33;;;;;18.81;57.78;101598.88;5073023;27;45490;-61
2023/06/01 04:15:45;;;;;;;;;28.33;26.67;;;;;18.82;57.73;101604.16;5074437;27;45460;-61
2023/06/01 04:18:11;;;;;;;;;27.00;26.33;;;;;18.82;58.33;101604.16;5077496;27;45450;-61
2023/06/01 04:20:36;;;;;;;;;33.33;28.67;;;;;18.83;57.52;101605.88;5076232;27;45624;-61
2023/06/01 04:23:02;;;;;;;;;31.67;30.67;;;;;18.85;57.60;101601.25;5068335;28;46082;-61
2023/06/01 04:25:28;;;;;;;;;26.67;21.33;;;;;18.88;58.60;101605.56;5075573;27;69900;-61
2023/06/01 04:27:54;;;;;;;;;28.33;25.67;;;;;18.88;57.75;101608.25;5083268;27;45410;-62
2023/06/01 04:30:22;;;;;;;;;31.00;29.00;;;;;18.90;58.49;101613.56;5076369;28;45376;-61
2023/06/01 04:32:47;;;;;;;;;26.67;26.00;;;;;18.91;58.02;101618.84;5060487;28;47272;-62
2023/06/01 04:35:13;;;;;;;;;34.33;30.33;;;;;18.89;57.85;101610.00;5071303;28;46725;-61
2023/06/01 04:37:40;;;;;;;;;35.00;29.33;;;;;18.89;57.92;101618.09;5067568;27;45421;-61
2023/06/01 04:40:08;;;;;;;;;32.33;29.33;;;;;18.90;58.30;101617.09;5071063;27;45658;-63
2023/06/01 04:42:34;;;;;;;;;28.67;24.33;;;;;18.89;58.66;101620.78;5061553;27;46490;-61
2023/06/01 04:45:04;;;;;;;;;35.33;31.67;;;;;18.91;58.56;101618.84;5059944;27;45933;-62
2023/06/01 04:47:31;;;;;;;;;29.67;26.33;;;;;18.91;58.08;101618.84;5061893;27;45464;-62
2023/06/01 04:49:56;;;;;;;;;32.33;27.67;;;;;18.94;58.66;101621.31;5071564;28;45517;-62
2023/06/01 04:52:22;;;;;;;;;30.67;28.00;;;;;18.96;57.70;101619.34;5077796;27;46028;-61
2023/06/01 04:54:48;;;;;;;;;30.00;25.00;;;;;19.03;57.86;101622.47;5065636;27;45528;-62
2023/06/01 04:57:13;;;;;;;;;36.33;32.67;;;;;19.07;58.17;101628.50;5075807;27;49132;-62
2023/06/01 04:59:40;;;;;;;;;34.33;31.67;;;;;19.11;58.14;101630.00;5078771;28;45562;-62
2023/06/01 05:02:06;;;;;;;;;33.67;30.00;;;;;19.10;58.38;101639.06;5078460;27;45338;-62
2023/06/01 05:04:31;;;;;;;;;31.33;29.67;;;;;19.10;57.82;101630.97;5073447;27;45325;-61
2023/06/01 05:06:57;;;;;;;;;35.33;29.33;;;;;19.11;57.62;101630.00;5078515;28;45449;-61
2023/06/01 05:09:22;;;;;;;;;32.33;29.00;;;;;19.15;58.59;101634.19;5072544;27;45794;-61
2023/06/01 05:11:48;;;;;;;;;28.00;27.67;;;;;19.18;58.12;101625.88;5076526;28;45410;-61
2023/06/01 05:14:13;;;;;;;;;28.00;24.67;;;;;19.24;57.28;101633.53;5082520;27;45409;-61
2023/06/01 05:16:38;;;;;;;;;36.00;31.33;;;;;19.23;57.37;101633.63;5080778;27;45444;-62
2023/06/01 05:19:04;;;;;;;;;31.00;28.33;;;;;19.30;57.75;101626.81;5076317;27;45363;-61
2023/06/01 05:21:31;;;;;;;;;34.00;30.00;;;;;19.33;57.03;101640.06;5075696;27;47279;-61
2023/06/01 05:23:56;;;;;;;;;31.00;28.33;;;;;19.41;56.93;101636.78;5072420;28;45271;-61
2023/06/01 05:26:22;;;;;;;;;33.33;29.33;;;;;19.48;56.85;101640.78;5090823;27;45833;-61
2023/06/01 05:28:47;;;;;;;;;33.67;29.67;;;;;19.56;56.84;101641.06;5061118;28;45339;-62
2023/06/01 05:31:13;;;;;;;;;31.00;27.33;;;;;19.62;56.25;101635.19;5073255;28;45315;-62
2023/06/01 05:33:38;;;;;;;;;33.67;29.67;;;;;19.66;56.13;101642.09;5087481;27;45604;-62
2023/06/01 05:36:04;;;;;;;;;33.00;29.67;;;;;19.67;55.66;101638.41;5064845;27;45391;-61
2023/06/01 05:38:29;;;;;;;;;33.33;30.00;;;;;19.72;56.24;101635.34;5065385;27;45675;-62
2023/06/01 05:40:54;;;;;;;;;28.00;24.33;;;;;19.75;56.10;101632.44;5070114;28;60371;-61
2023/06/01 05:43:20;;;;;;;;;36.00;33.00;;;;;19.77;55.71;101629.63;5075564;28;64136;-61
2023/06/01 05:45:45;;;;;;;;;33.67;31.33;;;;;19.80;56.03;101635.66;5076204;27;50876;-61
2023/06/01 05:48:13;;;;;;;;;36.67;33.33;;;;;19.87;55.88;101649.56;5073862;28;62771;-60
2023/06/01 05:50:40;;;;;;;;;39.00;31.33;;;;;19.91;55.22;101639.41;5076635;27;46497;-62
2023/06/01 05:53:05;;;;;;;;;32.67;30.33;;;;;19.94;55.07;101642.72;5064440;27;46114;-62
2023/06/01 05:55:31;;;;;;;;;33.67;30.33;;;;;19.97;54.96;101649.72;5073641;27;57732;-62
2023/06/01 05:57:56;;;;;;;;;36.33;31.67;;;;;19.99;55.61;101647.75;5073263;28;45417;-62
2023/06/01 06:00:22;;;;;;;;;30.00;28.67;;;;;20.02;55.07;101652.06;5069647;28;70044;-62
2023/06/01 06:02:47;;;;;;;;;33.00;29.67;;;;;20.05;54.87;101654.53;5070974;28;45504;-62
2023/06/01 06:05:14;;;;;;;;;34.00;31.33;;;;;20.09;55.30;101654.19;5062627;27;45960;-63
2023/06/01 06:07:40;;;;;;;;;39.33;32.33;;;;;20.15;54.95;101637.50;5079766;27;47204;-62
2023/06/01 06:10:06;;;;;;;;;35.67;32.00;;;;;20.22;54.68;101642.41;5067036;28;45872;-62
2023/06/01 06:12:31;;;;;;;;;38.33;33.00;;;;;20.30;54.23;101648.94;5077256;27;45354;-61
2023/06/01 06:14:56;;;;;;;;;35.00;31.00;;;;;20.38;54.20;101650.19;5062928;27;45500;-60
2023/06/01 06:17:22;;;;;;;;;35.33;29.67;;;;;20.47;54.30;101652.19;5069292;28;64645;-62
2023/06/01 06:19:49;;;;;;;;;37.33;33.33;;;;;20.54;53.58;101649.84;5074289;27;63488;-61
2023/06/01 06:22:14;;;;;;;;;38.33;33.00;;;;;20.58;53.61;101652.16;5064976;27;45861;-61
2023/06/01 06:24:40;;;;;;;;;41.33;32.33;;;;;20.72;53.41;101650.28;5071673;27;45425;-61
2023/06/01 06:27:06;;;;;;;;;40.67;32.67;;;;;20.90;53.25;101661.41;5077946;27;46226;-61
2023/06/01 06:29:32;;;;;;;;;38.33;31.33;;;;;21.06;52.65;101659.22;5077981;27;47134;-61
2023/06/01 06:31:57;;;;;;;;;34.67;31.33;;;;;21.26;52.19;101654.00;5065701;27;46129;-59
2023/06/01 06:34:22;;;;;;;;;36.00;32.33;;;;;21.96;51.18;101657.25;5073077;27;45700;-61
2023/06/01 06:36:48;;;;;;;;;41.67;35.00;;;;;23.25;49.53;101653.25;5073201;28;57861;-61
2023/06/01 06:39:13;;;;;;;;;36.00;30.00;;;;;24.63;46.57;101647.75;5068399;28;66519;-58
2023/06/01 06:41:42;;;;;;;;;33.00;30.33;;;;;26.17;45.33;101650.69;5071476;28;45437;-61
2023/06/01 06:44:07;;;;;;;;;34.67;30.33;;;;;27.53;40.39;101649.97;5059739;28;64410;-61
2023/06/01 06:46:33;;;;;;;;;35.33;31.33;;;;;28.67;40.55;101658.34;5079625;28;45385;-61
2023/06/01 06:48:58;;;;;;;;;36.67;33.00;;;;;29.52;36.23;101660.31;5078606;27;58224;-61
2023/06/01 06:51:23;;;;;;;;;34.67;31.67;;;;;30.30;36.56;101654.72;5077724;28;58971;-61
2023/06/01 06:53:49;;;;;;;;;37.33;32.00;;;;;31.03;36.17;101651.34;5071934;27;46179;-61
2023/06/01 06:56:15;;;;;;;;;28.33;26.33;;;;;31.84;35.22;101653.09;5067117;27;45505;-62
2023/06/01 06:58:40;;;;;;;;;28.00;27.33;;;;;32.69;33.37;101661.38;5078440;27;46182;-62
2023/06/01 07:01:05;;;;;;;;;34.00;29.33;;;;;33.28;32.14;101654.47;5077153;28;60216;-61
2023/06/01 07:03:31;;;;;;;;;31.00;28.00;;;;;33.92;30.73;101657.78;5073756;27;46105;-62
2023/06/01 07:05:57;;;;;;;;;25.33;25.00;;;;;34.59;28.78;101657.72;5078233;28;45456;-62
2023/06/01 07:08:23;;;;;;;;;27.33;25.33;;;;;35.14;27.91;101656.47;5078187;27;46090;-62
2023/06/01 07:10:48;;;;;;;;;26.67;25.67;;;;;35.26;26.22;101653.84;5078712;27;45659;-62
2023/06/01 07:13:13;;;;;;;;;19.67;19.67;;;;;35.43;25.21;101654.22;5079946;27;47514;-62
2023/06/01 07:15:39;;;;;;;;;28.33;27.00;;;;;35.81;27.23;101658.81;5070366;27;45365;-62
2023/06/01 07:18:05;;;;;;;;;28.00;24.33;;;;;36.46;26.17;101665.13;5071629;28;47439;-62
2023/06/01 07:20:30;;;;;;;;;30.33;24.00;;;;;36.92;26.07;101656.28;5069005;27;45427;-62
2023/06/01 07:22:56;;;;;;;;;28.67;26.33;;;;;37.29;24.92;101662.81;5076307;27;45425;-61
2023/06/01 07:25:21;;;;;;;;;31.00;27.33;;;;;37.65;23.92;101667.41;5075342;27;45391;-61
2023/06/01 07:27:48;;;;;;;;;31.33;28.33;;;;;37.83;22.27;101668.47;5076829;27;45508;-62
2023/06/01 07:30:14;;;;;;;;;29.00;26.33;;;;;38.02;22.74;101667.28;5071580;28;45857;-62
2023/06/01 07:32:39;;;;;;;;;30.00;27.00;;;;;38.48;22.91;101672.25;5072178;28;45442;-62
2023/06/01 07:35:06;;;;;;;;;24.67;23.00;;;;;38.64;21.85;101670.63;5068113;27;45330;-62
2023/06/01 07:37:31;;;;;;;;;31.67;27.33;;;;;38.58;21.18;101663.28;5078563;27;47048;-62
2023/06/01 07:39:57;;;;;;;;;24.00;23.33;;;;;38.76;21.55;101657.59;5072021;27;45486;-62
2023/06/01 07:42:22;;;;;;;;;27.33;27.33;;;;;39.21;21.60;101664.34;5071046;27;45466;-62
2023/06/01 07:44:48;;;;;;;;;24.67;23.67;;;;;39.64;21.13;101676.03;5073785;27;45650;-62
2023/06/01 07:47:13;;;;;;;;;28.33;27.00;;;;;39.98;21.20;101667.66;5066015;28;50211;-62
2023/06/01 07:49:38;;;;;;;;;27.00;26.00;;;;;40.37;20.64;101675.25;5078951;27;45448;-62
2023/06/01 07:52:05;;;;;;;;;25.00;23.00;;;;;40.98;20.94;101678.88;5065509;27;51935;-61
2023/06/01 07:54:31;;;;;;;;;28.67;27.33;;;;;41.77;19.56;101676.63;5073724;28;45537;-62
2023/06/01 07:56:56;;;;;;;;;29.33;27.33;;;;;42.08;19.62;101676.03;5069440;28;47460;-62
2023/06/01 07:59:23;;;;;;;;;28.33;27.67;;;;;42.37;19.32;101668.13;5078564;27;45410;-63
2023/06/01 08:01:49;;;;;;;;;25.67;24.00;;;;;42.86;18.74;101668.97;5068436;27;45407;-62
2023/06/01 08:04:16;;;;;;;;;23.00;22.67;;;;;43.24;18.73;101664.03;5076167;28;46164;-62
2023/06/01 08:06:41;;;;;;;;;22.33;21.00;;;;;43.51;18.47;101663.84;5064763;27;46607;-61
2023/06/01 08:09:07;;;;;;;;;25.67;25.67;;;;;43.76;16.20;101670.53;5066282;27;45497;-61
2023/06/01 08:11:32;;;;;;;;;19.67;19.67;;;;;43.92;17.37;101668.59;5075923;28;59014;-61
2023/06/01 08:13:59;;;;;;;;;25.67;25.00;;;;;44.03;16.94;101664.66;5065635;27;45374;-62
2023/06/01 08:16:26;;;;;;;;;25.67;24.67;;;;;44.71;17.12;101668.16;5066431;28;46368;-62
2023/06/01 08:18:52;;;;;;;;;26.33;23.00;;;;;45.38;16.01;101667.75;5076692;27;45525;-62
2023/06/01 08:21:17;;;;;;;;;23.00;20.67;;;;;45.83;15.86;101676.09;5071226;27;45859;-62
2023/06/01 08:23:43;;;;;;;;;24.00;21.33;;;;;46.06;14.62;101671.69;5075049;28;45468;-62
2023/06/01 08:26:08;;;;;;;;;22.67;21.33;;;;;46.08;14.87;101672.25;5081043;27;45525;-62
2023/06/01 08:28:33;;;;;;;;;21.00;21.00;;;;;46.34;15.26;101669.19;5073058;27;45712;-62
2023/06/01 08:30:59;;;;;;;;;23.67;23.67;;;;;46.75;14.56;101679.94;5065015;27;45873;-62
2023/06/01 08:33:24;;;;;;;;;21.00;21.00;;;;;47.17;13.42;101686.69;5066581;27;45389;-62
2023/06/01 08:35:50;;;;;;;;;25.33;23.33;;;;;47.80;13.98;101675.25;5086741;27;72384;-62
2023/06/01 08:38:15;;;;;;;;;21.00;17.33;;;;;48.61;14.48;101676.84;5068898;27;70618;-63
2023/06/01 08:40:40;;;;;;;;;26.00;23.67;;;;;49.21;14.05;101677.72;5073698;28;45298;-63
2023/06/01 08:43:21;;;;;;;;;24.67;22.67;;;;;49.32;13.83;101674.41;5062868;28;45679;-63
2023/06/01 08:45:48;;;;;;;;;24.00;22.33;;;;;49.87;11.91;101671.59;5073451;28;45497;-63
2023/06/01 08:48:16;;;;;;;;;23.67;23.33;;;;;50.57;12.54;101675.56;5075270;28;45442;-63
2023/06/01 08:50:43;;;;;;;;;24.00;21.00;;;;;51.66;11.28;101678.63;5077643;28;45487;-63
2023/06/01 08:53:08;;;;;;;;;21.00;18.33;;;;;51.83;11.64;101672.09;5064138;28;45623;-63
2023/06/01 08:55:34;;;;;;;;;22.33;22.33;;;;;52.14;11.05;101667.31;5096272;27;45309;-63
2023/06/01 08:57:59;;;;;;;;;27.00;24.00;;;;;52.60;10.75;101662.72;5080462;27;51910;-63
2023/06/01 09:00:25;;;;;;;;;30.00;23.00;;;;;53.19;10.23;101658.13;5070348;28;45543;-63
2023/06/01 09:02:51;;;;;;;;;22.00;22.00;;;;;53.56;9.60;101661.09;5076193;27;45526;-63
2023/06/01 09:05:17;;;;;;;;;26.67;24.67;;;;;53.68;10.61;101669.66;5069990;27;46331;-63
2023/06/01 09:07:42;;;;;;;;;24.67;21.67;;;;;53.97;8.96;101664.13;5089350;27;45663;-63
2023/06/01 09:10:08;;;;;;;;;22.33;19.67;;;;;54.39;10.34;101659.03;5080093;27;45439;-63
2023/06/01 09:12:33;;;;;;;;;26.00;19.67;;;;;54.89;10.16;101653.25;5080653;27;45623;-63
2023/06/01 09:15:18;;;;;;;;;24.00;24.00;;;;;55.32;9.76;101656.53;5076903;27;46375;-62
2023/06/01 09:18:05;;;;;;;;;27.00;22.33;;;;;55.25;9.31;101660.03;5069155;28;46944;-63
2023/06/01 09:20:31;;;;;;;;;29.67;22.00;;;;;55.15;9.29;101652.81;5078496;28;45534;-63
2023/06/01 09:22:57;;;;;;;;;20.33;19.67;;;;;55.35;8.90;101656.63;5076391;27;45265;-63
2023/06/01 09:25:27;;;;;;;;;22.67;22.67;;;;;55.48;9.26;101654.56;5080876;27;45413;-64
2023/06/01 09:27:53;;;;;;;;;20.67;19.67;;;;;56.18;7.45;101655.16;5087674;27;45529;-63
2023/06/01 09:30:21;;;;;;;;;19.00;19.00;;;;;56.31;7.93;101650.16;5065208;28;45429;-64
2023/06/01 09:32:50;;;;;;;;;21.67;21.67;;;;;56.40;8.71;101647.94;5079130;28;45291;-63
2023/06/01 09:35:17;;;;;;;;;16.33;16.33;;;;;56.95;7.96;101642.19;5091582;27;47567;-63
2023/06/01 09:37:55;;;;;;;;;19.00;19.00;;;;;57.43;7.58;101643.97;5074306;28;45405;-63
2023/06/01 09:40:20;;;;;;;;;22.67;19.33;;;;;57.89;7.55;101638.22;5065243;28;45562;-63
2023/06/01 09:42:49;;;;;;;;;19.67;17.33;;;;;58.30;7.54;101637.69;5079360;27;54109;-63
2023/06/01 09:45:18;;;;;;;;;21.33;20.00;;;;;58.36;7.49;101641.03;5077511;27;46017;-64
2023/06/01 09:47:44;;;;;;;;;21.67;21.67;;;;;58.21;6.07;101642.84;5078653;27;45385;-63
2023/06/01 09:50:10;;;;;;;;;22.33;22.33;;;;;58.73;6.60;101637.44;5075838;28;45405;-63
2023/06/01 09:52:35;;;;;;;;;18.33;18.00;;;;;58.59;7.51;101629.50;5079028;28;45373;-63
2023/06/01 09:55:08;;;;;;;;;18.67;16.67;;;;;58.64;7.47;101625.44;5074653;27;73267;-63
2023/06/01 09:57:34;;;;;;;;;22.33;19.67;;;;;58.90;6.38;101628.25;5061217;28;45422;-64
2023/06/01 10:00:03;;;;;;;;;21.67;21.00;;;;;58.83;6.36;101627.31;5071184;28;61523;-64
2023/06/01 10:02:32;;;;;;;;;18.33;18.33;;;;;58.86;6.78;101624.53;5059184;28;45370;-64
2023/06/01 10:05:00;;;;;;;;;21.33;17.33;;;;;58.39;6.31;101623.91;5073814;28;45785;-64
2023/06/01 10:07:27;;;;;;;;;21.00;21.00;;;;;58.44;6.77;101623.56;5063971;28;45383;-64
2023/06/01 10:09:58;;;;;;;;;20.67;19.33;;;;;58.03;6.89;101616.81;5073039;28;45440;-64
2023/06/01 10:12:25;;;;;;;;;15.67;14.67;;;;;58.29;6.45;101616.81;5080350;27;45399;-64
2023/06/01 10:14:51;;;;;;;;;18.67;18.67;;;;;58.84;7.08;101617.53;5076676;28;46760;-64
2023/06/01 10:17:18;;;;;;;;;22.00;19.67;;;;;59.20;6.08;101618.78;5075150;28;45288;-64
2023/06/01 10:19:44;;;;;;;;;21.33;19.33;;;;;59.64;6.50;101617.16;5079190;28;45560;-64
2023/06/01 10:22:12;;;;;;;;;19.67;18.67;;;;;60.39;6.35;101616.84;5061111;28;45513;-64
2023/06/01 10:24:41;;;;;;;;;18.33;15.67;;;;;60.61;5.76;101619.81;5079667;27;46463;-64
2023/06/01 10:27:25;;;;;;;;;20.67;18.67;;;;;60.56;6.04;101615.28;5078202;27;45574;-64
2023/06/01 10:29:53;;;;;;;;;16.67;16.33;;;;;60.13;5.32;101608.50;5078263;28;45405;-64
2023/06/01 10:32:37;;;;;;;;;13.00;13.00;;;;;60.13;6.08;101605.63;5078030;27;45544;-65
2023/06/01 10:35:03;;;;;;;;;16.67;16.67;;;;;60.62;5.51;101615.72;5074021;28;47337;-64
2023/06/01 10:37:28;;;;;;;;;16.00;16.00;;;;;60.28;4.95;101615.13;5077339;28;45296;-64
2023/06/01 10:40:11;;;;;;;;;18.33;17.00;;;;;60.00;5.98;101611.66;5068801;27;61026;-64
2023/06/01 10:42:37;;;;;;;;;21.00;19.33;;;;;60.38;5.57;101605.78;5057667;28;45297;-64
2023/06/01 10:45:03;;;;;;;;;17.33;16.00;;;;;60.67;5.63;101600.16;5073272;27;45409;-64
2023/06/01 10:47:35;;;;;;;;;19.33;18.00;;;;;60.62;5.05;101612.00;5073914;28;45815;-64
2023/06/01 10:50:00;;;;;;;;;18.67;16.67;;;;;60.69;5.63;101589.09;5076053;27;45427;-64
2023/06/01 10:52:35;;;;;;;;;14.67;14.67;;;;;60.90;5.96;101594.06;5070074;28;45531;-64
2023/06/01 10:55:24;;;;;;;;;13.33;13.33;;;;;60.96;4.21;101597.38;5074279;28;45484;-64
2023/06/01 10:57:50;;;;;;;;;19.67;19.33;;;;;60.19;6.04;101593.38;5073094;28;45480;-64
2023/06/01 11:00:23;;;;;;;;;15.00;15.00;;;;;59.26;6.15;101594.28;5082692;27;45520;-64
2023/06/01 11:03:04;;;;;;;;;13.33;13.33;;;;;58.85;5.67;101585.66;5066766;27;45553;-64
2023/06/01 11:05:43;;;;;;;;;13.00;11.67;;;;;58.57;5.71;101578.38;5093200;27;46441;-64
2023/06/01 11:08:21;;;;;;;;;15.67;14.67;;;;;57.96;5.96;101578.31;5076240;27;45349;-64
2023/06/01 11:10:56;;;;;;;;;13.33;13.00;;;;;57.63;6.66;101573.28;5073234;28;45387;-64
2023/06/01 11:13:35;;;;;;;;;15.00;15.00;;;;;58.17;6.73;101570.41;5071392;27;45521;-64